createdAt,value
2022-11-05T00:00:03.997Z,6.90
2022-11-05T00:00:25.103Z,6.60
2022-11-05T00:00:46.126Z,6.70
2022-11-05T00:01:07.183Z,7.30
2022-11-05T00:01:28.262Z,6.60
2022-11-05T00:01:49.421Z,6.90
2022-11-05T00:02:10.468Z,6.70
2022-11-05T00:02:31.512Z,6.40
2022-11-05T00:02:52.588Z,6.50
2022-11-05T00:03:13.921Z,6.70
2022-11-05T00:03:35.077Z,6.20
2022-11-05T00:03:56.170Z,7.00
2022-11-05T00:04:17.309Z,7.00
2022-11-05T00:04:38.360Z,6.70
2022-11-05T00:04:59.413Z,6.80
2022-11-05T00:05:20.471Z,6.70
2022-11-05T00:05:41.554Z,6.80
2022-11-05T00:06:02.585Z,7.00
2022-11-05T00:06:23.642Z,6.70
2022-11-05T00:06:44.764Z,6.90
2022-11-05T00:07:05.805Z,6.90
2022-11-05T00:07:26.862Z,6.80
2022-11-05T00:07:47.916Z,6.70
2022-11-05T00:08:08.960Z,6.60
2022-11-05T00:08:30.025Z,6.30
2022-11-05T00:08:51.070Z,6.30
2022-11-05T00:09:12.169Z,6.60
2022-11-05T00:09:33.206Z,6.70
2022-11-05T00:09:54.250Z,6.60
2022-11-05T00:10:15.308Z,6.40
2022-11-05T00:10:36.355Z,6.70
2022-11-05T00:10:57.417Z,6.60
2022-11-05T00:11:18.664Z,6.50
2022-11-05T00:11:39.680Z,6.50
2022-11-05T00:12:00.731Z,6.40
2022-11-05T00:12:21.972Z,6.50
2022-11-05T00:12:42.989Z,6.40
2022-11-05T00:13:04.044Z,6.30
2022-11-05T00:13:25.084Z,6.70
2022-11-05T00:13:46.132Z,6.60
2022-11-05T00:14:07.215Z,6.60
2022-11-05T00:14:28.233Z,6.70
2022-11-05T00:14:49.303Z,7.30
2022-11-05T00:15:10.363Z,7.40
2022-11-05T00:15:31.432Z,6.70
2022-11-05T00:15:52.484Z,6.60
2022-11-05T00:16:13.515Z,6.70
2022-11-05T00:16:34.588Z,6.70
2022-11-05T00:16:55.617Z,6.50
2022-11-05T00:17:16.670Z,6.50
2022-11-05T00:17:37.754Z,6.30
2022-11-05T00:17:58.795Z,6.60
2022-11-05T00:18:19.851Z,6.50
2022-11-05T00:18:40.906Z,6.70
2022-11-05T00:19:01.966Z,7.20
2022-11-05T00:19:23.022Z,7.30
2022-11-05T00:19:44.092Z,7.40
2022-11-05T00:20:05.124Z,7.40
2022-11-05T00:20:26.213Z,7.30
2022-11-05T00:20:47.264Z,6.90
2022-11-05T00:21:08.299Z,6.80
2022-11-05T00:21:29.343Z,7.10
2022-11-05T00:21:50.461Z,6.90
2022-11-05T00:22:11.475Z,7.10
2022-11-05T00:22:32.538Z,7.30
2022-11-05T00:22:53.590Z,7.00
2022-11-05T00:23:14.653Z,7.20
2022-11-05T00:23:35.714Z,7.20
2022-11-05T00:23:56.772Z,7.30
2022-11-05T00:24:23.186Z,7.50
2022-11-05T00:24:44.783Z,7.30
2022-11-05T00:25:05.839Z,6.90
2022-11-05T00:25:26.897Z,6.80
2022-11-05T00:25:48.036Z,6.90
2022-11-05T00:26:09.049Z,6.80
2022-11-05T00:26:30.119Z,6.90
2022-11-05T00:26:51.152Z,7.40
2022-11-05T00:27:12.219Z,7.00
2022-11-05T00:27:33.268Z,7.10
2022-11-05T00:27:54.471Z,7.40
2022-11-05T00:28:15.502Z,7.40
2022-11-05T00:28:36.551Z,7.40
2022-11-05T00:28:57.601Z,6.90
2022-11-05T00:29:18.662Z,7.00
2022-11-05T00:29:39.714Z,7.30
2022-11-05T00:30:00.784Z,7.20
2022-11-05T00:30:21.845Z,7.30
2022-11-05T00:30:42.940Z,7.40
2022-11-05T00:31:03.992Z,7.40
2022-11-05T00:31:25.032Z,7.50
2022-11-05T00:31:46.094Z,7.80
2022-11-05T00:32:07.157Z,8.10
2022-11-05T00:32:28.206Z,7.40
2022-11-05T00:32:49.252Z,6.90
2022-11-05T00:33:10.847Z,7.60
2022-11-05T00:33:32.091Z,7.40
2022-11-05T00:33:53.153Z,7.20
2022-11-05T00:34:14.219Z,7.20
2022-11-05T00:34:35.247Z,7.20
2022-11-05T00:34:56.316Z,7.20
2022-11-05T00:35:17.361Z,7.20
2022-11-05T00:35:38.407Z,7.30
2022-11-05T00:35:59.548Z,7.20
2022-11-05T00:36:20.553Z,7.60
2022-11-05T00:36:41.599Z,7.60
2022-11-05T00:37:02.704Z,7.30
2022-11-05T00:37:24.271Z,7.10
2022-11-05T00:37:49.845Z,6.90
2022-11-05T00:38:12.403Z,6.80
2022-11-05T00:38:33.462Z,7.30
2022-11-05T00:38:54.525Z,6.80
2022-11-05T00:39:15.575Z,6.40
2022-11-05T00:39:36.615Z,6.40
2022-11-05T00:39:57.674Z,6.80
2022-11-05T00:40:18.736Z,6.90
2022-11-05T00:40:39.794Z,6.80
2022-11-05T00:41:00.872Z,6.90
2022-11-05T00:41:21.903Z,6.60
2022-11-05T00:41:42.957Z,6.50
2022-11-05T00:42:04.009Z,6.90
2022-11-05T00:42:25.143Z,6.60
2022-11-05T00:42:46.175Z,6.60
2022-11-05T00:43:07.336Z,6.70
2022-11-05T00:43:28.524Z,6.50
2022-11-05T00:43:49.581Z,6.90
2022-11-05T00:44:10.628Z,7.20
2022-11-05T00:44:31.690Z,6.50
2022-11-05T00:44:52.732Z,6.50
2022-11-05T00:45:13.805Z,6.80
2022-11-05T00:45:34.836Z,6.60
2022-11-05T00:45:55.897Z,6.60
2022-11-05T00:46:16.960Z,6.50
2022-11-05T00:46:38.020Z,6.10
2022-11-05T00:46:59.999Z,6.00
2022-11-05T00:47:21.275Z,6.60
2022-11-05T00:50:22.663Z,6.30
2022-11-05T00:50:43.713Z,6.70
2022-11-05T00:51:12.309Z,6.40
2022-11-05T00:51:33.362Z,6.90
2022-11-05T00:51:54.407Z,6.60
2022-11-05T00:52:15.458Z,7.00
2022-11-05T00:52:36.512Z,7.40
2022-11-05T00:52:57.905Z,6.80
2022-11-05T00:53:19.067Z,6.90
2022-11-05T00:53:40.259Z,7.00
2022-11-05T00:54:01.311Z,7.40
2022-11-05T00:54:22.387Z,6.80
2022-11-05T00:54:43.431Z,6.80
2022-11-05T00:55:04.612Z,6.50
2022-11-05T00:55:25.679Z,6.30
2022-11-05T00:55:46.727Z,6.90
2022-11-05T00:56:07.763Z,6.80
2022-11-05T00:56:28.825Z,6.80
2022-11-05T00:56:49.920Z,6.90
2022-11-05T00:57:10.953Z,6.90
2022-11-05T00:57:31.995Z,6.70
2022-11-05T00:57:53.069Z,7.10
2022-11-05T00:58:14.139Z,6.70
2022-11-05T00:58:35.314Z,6.80
2022-11-05T00:58:56.396Z,6.90
2022-11-05T00:59:17.407Z,7.10
2022-11-05T00:59:38.478Z,6.80
2022-11-05T00:59:59.517Z,7.20
2022-11-05T01:00:20.581Z,6.90
2022-11-05T01:00:41.690Z,7.10
2022-11-05T01:01:02.721Z,7.50
2022-11-05T01:01:23.882Z,7.20
2022-11-05T01:01:45.124Z,7.20
2022-11-05T01:02:06.321Z,7.20
2022-11-05T01:02:27.626Z,6.80
2022-11-05T01:02:48.930Z,6.70
2022-11-05T01:03:10.495Z,6.30
2022-11-05T01:03:31.868Z,6.30
2022-11-05T01:03:53.123Z,6.60
2022-11-05T01:04:14.162Z,6.70
2022-11-05T01:04:35.226Z,6.30
2022-11-05T01:04:56.274Z,6.40
2022-11-05T01:05:17.337Z,6.30
2022-11-05T01:05:38.392Z,6.50
2022-11-05T01:05:59.450Z,7.00
2022-11-05T01:06:20.598Z,7.10
2022-11-05T01:06:41.598Z,7.50
2022-11-05T01:07:02.671Z,6.90
2022-11-05T01:07:23.719Z,6.60
2022-11-05T01:07:44.784Z,6.90
2022-11-05T01:08:05.836Z,6.40
2022-11-05T01:08:26.891Z,6.80
2022-11-05T01:08:47.956Z,6.80
2022-11-05T01:09:09.050Z,7.10
2022-11-05T01:09:30.081Z,6.90
2022-11-05T01:09:51.145Z,7.10
2022-11-05T01:10:12.238Z,7.00
2022-11-05T01:10:33.294Z,6.90
2022-11-05T01:10:54.358Z,6.70
2022-11-05T01:11:15.413Z,6.70
2022-11-05T01:11:36.487Z,6.60
2022-11-05T01:11:57.627Z,6.70
2022-11-05T01:12:18.631Z,7.10
2022-11-05T01:12:39.712Z,6.90
2022-11-05T01:13:00.744Z,6.60
2022-11-05T01:13:21.802Z,6.50
2022-11-05T01:13:42.942Z,7.00
2022-11-05T01:14:04.009Z,7.30
2022-11-05T01:14:25.044Z,6.50
2022-11-05T01:14:46.100Z,6.40
2022-11-05T01:15:07.167Z,6.70
2022-11-05T01:15:28.204Z,6.40
2022-11-05T01:15:49.270Z,6.70
2022-11-05T01:16:10.333Z,6.60
2022-11-05T01:16:31.390Z,7.20
2022-11-05T01:16:52.443Z,7.00
2022-11-05T01:17:13.621Z,7.20
2022-11-05T01:17:34.667Z,7.10
2022-11-05T01:17:55.697Z,6.90
2022-11-05T01:18:16.751Z,6.90
2022-11-05T01:18:37.807Z,6.70
2022-11-05T01:18:58.877Z,6.80
2022-11-05T01:19:20.066Z,6.90
2022-11-05T01:19:41.158Z,6.60
2022-11-05T01:20:02.227Z,6.70
2022-11-05T01:20:23.282Z,6.80
2022-11-05T01:20:44.325Z,6.60
2022-11-05T01:21:05.504Z,6.70
2022-11-05T01:21:26.528Z,6.60
2022-11-05T01:21:47.562Z,6.50
2022-11-05T01:22:08.624Z,7.00
2022-11-05T01:22:29.677Z,7.40
2022-11-05T01:22:50.731Z,6.90
2022-11-05T01:23:13.673Z,6.40
2022-11-05T01:23:35.029Z,6.50
2022-11-05T01:23:56.092Z,6.70
2022-11-05T01:24:17.159Z,6.50
2022-11-05T01:24:38.315Z,6.60
2022-11-05T01:24:59.346Z,6.60
2022-11-05T01:25:20.382Z,6.50
2022-11-05T01:25:41.426Z,6.60
2022-11-05T01:26:02.530Z,6.90
2022-11-05T01:26:23.552Z,6.90
2022-11-05T01:26:44.611Z,6.70
2022-11-05T01:27:05.649Z,6.80
2022-11-05T01:27:26.703Z,6.60
2022-11-05T01:27:47.754Z,6.20
2022-11-05T01:28:08.835Z,6.40
2022-11-05T01:28:30.032Z,6.60
2022-11-05T01:28:51.181Z,6.60
2022-11-05T01:29:12.306Z,7.30
2022-11-05T01:29:33.344Z,6.30
2022-11-05T01:29:54.397Z,6.30
2022-11-05T01:30:15.447Z,5.90
2022-11-05T01:30:36.525Z,5.90
2022-11-05T01:30:57.556Z,5.90
2022-11-05T01:31:18.608Z,5.90
2022-11-05T01:31:39.668Z,5.70
2022-11-05T01:32:00.726Z,5.70
2022-11-05T01:32:21.782Z,5.60
2022-11-05T01:32:42.912Z,6.10
2022-11-05T01:33:03.931Z,6.10
2022-11-05T01:33:24.984Z,5.70
2022-11-05T01:33:46.082Z,6.30
2022-11-05T01:34:07.118Z,6.20
2022-11-05T01:34:28.212Z,5.60
2022-11-05T01:34:49.254Z,5.80
2022-11-05T01:35:10.324Z,5.90
2022-11-05T01:35:31.383Z,5.90
2022-11-05T01:35:52.455Z,5.80
2022-11-05T01:36:13.522Z,5.60
2022-11-05T01:36:34.734Z,5.50
2022-11-05T01:36:55.746Z,5.70
2022-11-05T01:37:16.808Z,5.80
2022-11-05T01:37:37.888Z,6.40
2022-11-05T01:37:58.919Z,6.40
2022-11-05T01:38:19.957Z,6.10
2022-11-05T01:38:41.043Z,6.30
2022-11-05T01:39:02.076Z,6.10
2022-11-05T01:39:23.251Z,6.40
2022-11-05T01:39:44.313Z,5.90
2022-11-05T01:40:05.362Z,6.00
2022-11-05T01:40:26.417Z,6.10
2022-11-05T01:40:47.468Z,5.90
2022-11-05T01:41:08.520Z,6.10
2022-11-05T01:41:29.574Z,6.50
2022-11-05T01:41:50.631Z,6.00
2022-11-05T01:42:11.684Z,5.90
2022-11-05T01:42:32.761Z,6.00
2022-11-05T01:42:53.808Z,6.00
2022-11-05T01:43:14.864Z,5.90
2022-11-05T01:43:35.917Z,5.90
2022-11-05T01:43:57.031Z,5.70
2022-11-05T01:44:18.067Z,5.70
2022-11-05T01:44:39.121Z,5.50
2022-11-05T01:45:00.178Z,5.80
2022-11-05T01:45:21.237Z,5.60
2022-11-05T01:45:42.316Z,5.80
2022-11-05T01:46:03.347Z,5.90
2022-11-05T01:46:24.401Z,5.50
2022-11-05T01:46:45.442Z,5.60
2022-11-05T01:47:06.496Z,6.10
2022-11-05T01:47:27.558Z,6.00
2022-11-05T01:47:48.613Z,5.90
2022-11-05T01:48:09.680Z,5.90
2022-11-05T01:48:30.752Z,6.20
2022-11-05T01:48:51.775Z,6.00
2022-11-05T01:49:12.826Z,5.90
2022-11-05T01:49:34.040Z,6.00
2022-11-05T01:49:55.084Z,5.70
2022-11-05T01:50:16.137Z,5.80
2022-11-05T01:50:37.200Z,5.80
2022-11-05T01:50:58.248Z,5.80
2022-11-05T01:51:19.299Z,6.20
2022-11-05T01:51:40.366Z,6.60
2022-11-05T01:52:01.397Z,6.00
2022-11-05T01:52:22.450Z,5.70
2022-11-05T01:52:43.511Z,6.20
2022-11-05T01:53:04.559Z,6.20
2022-11-05T01:53:25.615Z,6.10
2022-11-05T01:53:46.687Z,6.20
2022-11-05T01:54:07.741Z,6.10
2022-11-05T01:54:28.804Z,5.90
2022-11-05T01:54:49.987Z,6.40
2022-11-05T01:55:11.022Z,6.50
2022-11-05T01:55:32.090Z,6.20
2022-11-05T01:55:53.147Z,6.40
2022-11-05T01:56:14.212Z,6.10
2022-11-05T01:56:35.239Z,5.90
2022-11-05T01:56:56.306Z,6.40
2022-11-05T01:57:17.400Z,6.20
2022-11-05T01:57:38.439Z,6.20
2022-11-05T01:57:59.496Z,6.20
2022-11-05T01:58:20.606Z,6.10
2022-11-05T01:58:41.641Z,6.30
2022-11-05T01:59:02.820Z,6.10
2022-11-05T01:59:23.873Z,5.70
2022-11-05T01:59:45.078Z,6.50
2022-11-05T02:00:06.133Z,6.50
2022-11-05T02:00:27.190Z,6.10
2022-11-05T02:00:48.238Z,5.70
2022-11-05T02:01:09.306Z,5.70
2022-11-05T02:01:30.572Z,5.60
2022-11-05T02:01:51.802Z,6.10
2022-11-05T02:02:13.031Z,6.20
2022-11-05T02:02:34.267Z,6.30
2022-11-05T02:02:55.460Z,6.20
2022-11-05T02:03:16.519Z,6.70
2022-11-05T02:03:37.565Z,6.60
2022-11-05T02:03:58.628Z,6.10
2022-11-05T02:04:19.671Z,6.00
2022-11-05T02:04:40.722Z,5.90
2022-11-05T02:05:01.785Z,6.10
2022-11-05T02:05:22.858Z,6.30
2022-11-05T02:05:43.913Z,6.00
2022-11-05T02:06:04.960Z,5.90
2022-11-05T02:06:26.022Z,5.90
2022-11-05T02:06:47.098Z,6.10
2022-11-05T02:07:08.136Z,6.50
2022-11-05T02:07:29.256Z,6.00
2022-11-05T02:07:50.285Z,6.10
2022-11-05T02:08:11.329Z,6.20
2022-11-05T02:08:32.404Z,6.50
2022-11-05T02:08:53.443Z,6.40
2022-11-05T02:09:14.521Z,6.10
2022-11-05T02:09:35.577Z,6.20
2022-11-05T02:09:56.654Z,6.10
2022-11-05T02:10:17.717Z,5.60
2022-11-05T02:10:38.765Z,5.80
2022-11-05T02:10:59.813Z,5.80
2022-11-05T02:11:20.872Z,6.10
2022-11-05T02:11:41.928Z,6.10
2022-11-05T02:12:02.991Z,6.00
2022-11-05T02:12:24.037Z,6.00
2022-11-05T02:12:45.091Z,5.60
2022-11-05T02:13:06.161Z,6.00
2022-11-05T02:13:27.222Z,5.70
2022-11-05T02:13:48.284Z,5.90
2022-11-05T02:14:09.339Z,6.10
2022-11-05T02:14:30.408Z,6.30
2022-11-05T02:14:51.688Z,6.30
2022-11-05T02:15:12.730Z,6.40
2022-11-05T02:15:33.781Z,5.90
2022-11-05T02:15:54.869Z,6.00
2022-11-05T02:16:15.895Z,6.20
2022-11-05T02:16:36.960Z,6.10
2022-11-05T02:16:58.015Z,5.80
2022-11-05T02:17:19.065Z,6.00
2022-11-05T02:17:40.138Z,5.70
2022-11-05T02:18:01.178Z,5.70
2022-11-05T02:18:22.224Z,5.90
2022-11-05T02:18:43.282Z,6.10
2022-11-05T02:19:04.326Z,6.10
2022-11-05T02:19:25.401Z,5.70
2022-11-05T02:19:46.443Z,5.80
2022-11-05T02:20:07.569Z,5.90
2022-11-05T02:20:28.613Z,5.90
2022-11-05T02:20:52.378Z,6.00
2022-11-05T02:21:13.499Z,6.60
2022-11-05T02:21:34.539Z,6.50
2022-11-05T02:21:55.608Z,6.10
2022-11-05T02:22:16.662Z,5.90
2022-11-05T02:22:37.720Z,6.30
2022-11-05T02:22:58.768Z,6.30
2022-11-05T02:23:19.814Z,6.70
2022-11-05T02:23:40.875Z,6.80
2022-11-05T02:24:02.000Z,6.60
2022-11-05T02:24:23.022Z,6.60
2022-11-05T02:24:44.071Z,6.30
2022-11-05T02:25:05.140Z,6.20
2022-11-05T02:25:26.184Z,6.50
2022-11-05T02:25:47.317Z,6.90
2022-11-05T02:26:08.336Z,6.90
2022-11-05T02:26:29.396Z,6.50
2022-11-05T02:26:50.446Z,6.30
2022-11-05T02:27:11.488Z,6.50
2022-11-05T02:27:32.572Z,6.30
2022-11-05T02:27:53.625Z,6.40
2022-11-05T02:28:14.654Z,6.60
2022-11-05T02:28:35.704Z,6.70
2022-11-05T02:28:56.766Z,6.80
2022-11-05T02:29:17.813Z,6.30
2022-11-05T02:29:38.861Z,6.40
2022-11-05T02:29:59.940Z,7.00
2022-11-05T02:30:21.005Z,6.80
2022-11-05T02:30:42.072Z,6.80
2022-11-05T02:31:03.170Z,7.10
2022-11-05T02:31:24.212Z,6.80
2022-11-05T02:31:45.270Z,6.70
2022-11-05T02:32:06.365Z,7.20
2022-11-05T02:32:27.402Z,7.10
2022-11-05T02:32:48.439Z,7.10
2022-11-05T02:33:09.991Z,7.40
2022-11-05T02:33:31.279Z,6.90
2022-11-05T02:33:52.341Z,6.70
2022-11-05T02:34:13.388Z,6.50
2022-11-05T02:34:34.473Z,6.80
2022-11-05T02:34:55.501Z,6.80
2022-11-05T02:35:16.593Z,6.90
2022-11-05T02:35:37.656Z,7.10
2022-11-05T02:35:58.717Z,7.40
2022-11-05T02:36:19.774Z,7.20
2022-11-05T02:36:40.867Z,7.00
2022-11-05T02:37:01.899Z,7.10
2022-11-05T02:37:22.945Z,7.20
2022-11-05T02:37:44.010Z,6.80
2022-11-05T02:38:05.078Z,6.70
2022-11-05T02:38:26.116Z,7.20
2022-11-05T02:38:47.160Z,7.00
2022-11-05T02:39:08.211Z,7.20
2022-11-05T02:39:29.256Z,7.10
2022-11-05T02:39:50.323Z,7.10
2022-11-05T02:40:11.381Z,6.90
2022-11-05T02:40:32.521Z,7.10
2022-11-05T02:40:53.552Z,7.20
2022-11-05T02:41:14.622Z,7.20
2022-11-05T02:41:35.652Z,7.60
2022-11-05T02:42:00.645Z,7.30
2022-11-05T02:42:23.714Z,7.00
2022-11-05T02:42:44.761Z,7.00
2022-11-05T02:43:05.817Z,7.10
2022-11-05T02:43:26.886Z,7.50
2022-11-05T02:43:47.929Z,7.10
2022-11-05T02:44:08.977Z,6.90
2022-11-05T02:44:30.030Z,7.10
2022-11-05T02:44:51.085Z,7.00
2022-11-05T02:45:12.161Z,6.80
2022-11-05T02:45:33.219Z,7.50
2022-11-05T02:45:54.274Z,7.10
2022-11-05T02:46:15.342Z,7.00
2022-11-05T02:46:36.383Z,7.00
2022-11-05T02:46:57.511Z,7.00
2022-11-05T02:47:18.552Z,7.00
2022-11-05T02:47:39.589Z,6.80
2022-11-05T02:48:00.682Z,7.30
2022-11-05T02:48:21.719Z,7.20
2022-11-05T02:48:42.763Z,7.40
2022-11-05T02:49:03.826Z,7.20
2022-11-05T02:49:24.928Z,7.20
2022-11-05T02:49:45.953Z,7.90
2022-11-05T02:50:07.001Z,7.70
2022-11-05T02:50:28.057Z,6.80
2022-11-05T02:50:49.157Z,7.00
2022-11-05T02:51:10.170Z,6.80
2022-11-05T02:51:31.217Z,6.90
2022-11-05T02:51:52.273Z,6.90
2022-11-05T02:52:13.344Z,6.70
2022-11-05T02:52:34.383Z,6.80
2022-11-05T02:52:55.448Z,7.20
2022-11-05T02:53:16.521Z,7.00
2022-11-05T02:53:37.555Z,7.20
2022-11-05T02:53:58.624Z,7.10
2022-11-05T02:54:19.661Z,7.10
2022-11-05T02:54:40.711Z,7.00
2022-11-05T02:55:01.763Z,7.20
2022-11-05T02:55:22.816Z,6.70
2022-11-05T02:55:44.059Z,6.80
2022-11-05T02:56:05.133Z,7.30
2022-11-05T02:56:26.182Z,7.50
2022-11-05T02:56:47.243Z,7.00
2022-11-05T02:57:08.291Z,7.20
2022-11-05T02:57:29.337Z,7.60
2022-11-05T02:57:50.404Z,7.70
2022-11-05T02:58:11.531Z,6.90
2022-11-05T02:58:32.559Z,6.50
2022-11-05T02:58:53.613Z,7.20
2022-11-05T02:59:14.656Z,7.40
2022-11-05T02:59:35.755Z,7.50
2022-11-05T02:59:56.766Z,7.10
2022-11-05T03:00:17.842Z,7.10
2022-11-05T03:00:38.890Z,7.10
2022-11-05T03:00:59.940Z,7.30
2022-11-05T03:01:21.085Z,7.30
2022-11-05T03:01:42.290Z,7.00
2022-11-05T03:02:03.599Z,7.00
2022-11-05T03:02:24.826Z,6.90
2022-11-05T03:02:46.134Z,7.80
2022-11-05T03:03:07.292Z,7.20
2022-11-05T03:03:28.335Z,7.30
2022-11-05T03:03:49.382Z,7.20
2022-11-05T03:04:10.465Z,6.90
2022-11-05T03:04:31.498Z,7.20
2022-11-05T03:04:52.548Z,7.00
2022-11-05T03:05:13.608Z,7.00
2022-11-05T03:05:34.716Z,7.60
2022-11-05T03:05:55.878Z,7.40
2022-11-05T03:06:16.929Z,7.40
2022-11-05T03:06:37.985Z,7.20
2022-11-05T03:06:59.044Z,7.50
2022-11-05T03:07:20.115Z,7.80
2022-11-05T03:07:41.173Z,7.40
2022-11-05T03:08:02.205Z,7.30
2022-11-05T03:08:23.308Z,6.80
2022-11-05T03:08:44.569Z,7.30
2022-11-05T03:09:05.609Z,7.10
2022-11-05T03:09:26.664Z,7.60
2022-11-05T03:09:47.715Z,7.60
2022-11-05T03:10:08.767Z,7.50
2022-11-05T03:10:29.855Z,7.40
2022-11-05T03:10:50.885Z,7.50
2022-11-05T03:11:11.956Z,7.50
2022-11-05T03:11:33.004Z,7.20
2022-11-05T03:11:54.078Z,7.80
2022-11-05T03:12:15.138Z,7.10
2022-11-05T03:12:36.202Z,7.50
2022-11-05T03:12:57.231Z,7.60
2022-11-05T03:13:18.281Z,7.20
2022-11-05T03:13:39.340Z,6.90
2022-11-05T03:14:00.441Z,7.20
2022-11-05T03:14:21.480Z,7.50
2022-11-05T03:14:42.543Z,7.80
2022-11-05T03:15:03.585Z,7.60
2022-11-05T03:15:24.656Z,7.30
2022-11-05T03:15:45.695Z,7.10
2022-11-05T03:16:06.809Z,7.40
2022-11-05T03:16:27.829Z,7.60
2022-11-05T03:16:48.892Z,7.70
2022-11-05T03:17:09.927Z,7.20
2022-11-05T03:17:30.981Z,7.30
2022-11-05T03:17:52.071Z,7.50
2022-11-05T03:18:13.117Z,7.30
2022-11-05T03:18:34.168Z,7.40
2022-11-05T03:18:55.217Z,7.40
2022-11-05T03:19:16.268Z,7.60
2022-11-05T03:19:37.328Z,7.40
2022-11-05T03:19:58.380Z,7.40
2022-11-05T03:20:19.548Z,7.20
2022-11-05T03:20:40.569Z,7.80
2022-11-05T03:21:01.631Z,8.10
2022-11-05T03:21:22.716Z,7.70
2022-11-05T03:21:43.771Z,7.90
2022-11-05T03:22:04.847Z,7.60
2022-11-05T03:22:25.886Z,7.30
2022-11-05T03:22:46.969Z,7.50
2022-11-05T03:23:08.329Z,7.60
2022-11-05T03:23:29.623Z,7.40
2022-11-05T03:23:50.727Z,8.30
2022-11-05T03:24:11.763Z,8.30
2022-11-05T03:24:32.815Z,7.70
2022-11-05T03:24:53.884Z,7.80
2022-11-05T03:25:14.926Z,7.50
2022-11-05T03:25:35.963Z,7.60
2022-11-05T03:25:57.024Z,7.80
2022-11-05T03:26:18.089Z,7.40
2022-11-05T03:26:39.145Z,7.30
2022-11-05T03:27:00.218Z,7.20
2022-11-05T03:27:21.258Z,7.90
2022-11-05T03:27:42.308Z,8.10
2022-11-05T03:28:03.365Z,8.00
2022-11-05T03:28:24.424Z,8.00
2022-11-05T03:28:45.491Z,7.70
2022-11-05T03:29:06.530Z,7.80
2022-11-05T03:29:27.595Z,7.90
2022-11-05T03:29:48.623Z,7.70
2022-11-05T03:30:09.668Z,7.50
2022-11-05T03:30:30.726Z,7.40
2022-11-05T03:30:51.797Z,7.40
2022-11-05T03:31:12.876Z,7.60
2022-11-05T03:31:33.906Z,7.50
2022-11-05T03:31:55.299Z,7.70
2022-11-05T03:32:16.418Z,7.40
2022-11-05T03:32:37.464Z,7.70
2022-11-05T03:32:58.514Z,7.50
2022-11-05T03:33:19.568Z,8.00
2022-11-05T03:33:40.619Z,8.20
2022-11-05T03:34:01.666Z,8.10
2022-11-05T03:34:22.731Z,7.50
2022-11-05T03:34:43.757Z,7.70
2022-11-05T03:35:04.809Z,7.50
2022-11-05T03:35:25.875Z,7.90
2022-11-05T03:35:46.953Z,8.20
2022-11-05T03:36:07.988Z,8.30
2022-11-05T03:36:29.048Z,7.80
2022-11-05T03:36:50.250Z,7.80
2022-11-05T03:37:11.293Z,7.80
2022-11-05T03:37:32.444Z,8.00
2022-11-05T03:37:53.449Z,7.40
2022-11-05T03:38:14.491Z,8.10
2022-11-05T03:38:35.566Z,7.80
2022-11-05T03:38:56.597Z,7.90
2022-11-05T03:39:17.652Z,7.70
2022-11-05T03:39:38.700Z,7.90
2022-11-05T03:39:59.791Z,8.00
2022-11-05T03:40:20.827Z,7.90
2022-11-05T03:40:41.896Z,7.90
2022-11-05T03:41:02.928Z,7.50
2022-11-05T03:41:23.991Z,7.90
2022-11-05T03:41:45.025Z,7.90
2022-11-05T03:42:06.203Z,7.90
2022-11-05T03:42:27.246Z,8.00
2022-11-05T03:42:48.303Z,7.80
2022-11-05T03:43:09.854Z,7.90
2022-11-05T03:43:31.058Z,8.20
2022-11-05T03:43:52.114Z,7.90
2022-11-05T03:44:13.160Z,8.10
2022-11-05T03:44:34.210Z,8.30
2022-11-05T03:44:55.263Z,7.70
2022-11-05T03:45:16.323Z,8.10
2022-11-05T03:45:37.362Z,7.90
2022-11-05T03:45:58.403Z,7.80
2022-11-05T03:46:19.458Z,8.20
2022-11-05T03:46:40.542Z,7.90
2022-11-05T03:47:01.597Z,8.00
2022-11-05T03:47:22.646Z,8.10
2022-11-05T03:47:43.692Z,8.10
2022-11-05T03:48:04.743Z,8.30
2022-11-05T03:48:25.861Z,8.10
2022-11-05T03:48:46.973Z,7.80
2022-11-05T03:49:08.127Z,7.70
2022-11-05T03:49:29.154Z,7.70
2022-11-05T03:49:50.230Z,8.20
2022-11-05T03:50:11.292Z,8.00
2022-11-05T03:50:34.760Z,7.90
2022-11-05T03:50:59.308Z,7.60
2022-11-05T03:51:20.452Z,7.70
2022-11-05T03:51:41.486Z,8.30
2022-11-05T03:52:03.185Z,8.20
2022-11-05T03:52:24.227Z,8.10
2022-11-05T03:52:45.371Z,8.30
2022-11-05T03:53:06.404Z,8.10
2022-11-05T03:53:27.435Z,8.40
2022-11-05T03:53:48.493Z,8.30
2022-11-05T03:54:09.552Z,7.70
2022-11-05T03:54:30.606Z,7.90
2022-11-05T03:54:51.656Z,7.60
2022-11-05T03:55:12.711Z,7.50
2022-11-05T03:55:33.766Z,7.90
2022-11-05T03:55:54.860Z,8.30
2022-11-05T03:56:15.903Z,8.00
2022-11-05T03:56:36.961Z,7.70
2022-11-05T03:56:58.010Z,7.90
2022-11-05T03:57:19.090Z,8.20
2022-11-05T03:57:40.138Z,7.60
2022-11-05T03:58:01.187Z,8.10
2022-11-05T03:58:22.247Z,8.00
2022-11-05T03:58:43.297Z,8.20
2022-11-05T03:59:04.352Z,7.90
2022-11-05T03:59:25.424Z,8.30
2022-11-05T03:59:46.488Z,8.20
2022-11-05T04:00:07.645Z,8.40
2022-11-05T04:00:28.655Z,8.20
2022-11-05T04:00:49.713Z,8.00
2022-11-05T04:01:10.755Z,8.10
2022-11-05T04:01:31.954Z,8.30
2022-11-05T04:01:53.235Z,8.30
2022-11-05T04:02:14.562Z,8.00
2022-11-05T04:02:35.736Z,7.70
2022-11-05T04:02:56.878Z,7.80
2022-11-05T04:03:17.906Z,8.00
2022-11-05T04:03:38.944Z,8.40
2022-11-05T04:04:00.004Z,7.90
2022-11-05T04:04:21.043Z,7.60
2022-11-05T04:04:42.164Z,7.80
2022-11-05T04:05:03.190Z,8.20
2022-11-05T04:05:24.233Z,8.40
2022-11-05T04:05:45.305Z,7.70
2022-11-05T04:06:06.356Z,7.80
2022-11-05T04:06:27.427Z,8.10
2022-11-05T04:06:48.467Z,7.80
2022-11-05T04:07:09.525Z,7.90
2022-11-05T04:07:30.593Z,7.50
2022-11-05T04:07:51.667Z,7.70
2022-11-05T04:08:14.513Z,7.70
2022-11-05T04:08:35.738Z,7.60
2022-11-05T04:08:56.784Z,8.10
2022-11-05T04:09:17.839Z,8.40
2022-11-05T04:09:38.896Z,7.90
2022-11-05T04:09:59.930Z,7.80
2022-11-05T04:10:20.984Z,8.10
2022-11-05T04:10:42.049Z,8.00
2022-11-05T04:11:03.144Z,8.00
2022-11-05T04:11:24.165Z,8.10
2022-11-05T04:11:45.228Z,8.60
2022-11-05T04:12:06.272Z,7.90
2022-11-05T04:12:27.340Z,8.20
2022-11-05T04:12:48.400Z,8.20
2022-11-05T04:13:09.856Z,8.20
2022-11-05T04:13:31.102Z,7.60
2022-11-05T04:13:52.146Z,8.10
2022-11-05T04:14:13.226Z,8.20
2022-11-05T04:14:34.265Z,8.10
2022-11-05T04:14:55.302Z,8.20
2022-11-05T04:15:16.351Z,8.00
2022-11-05T04:15:37.409Z,8.40
2022-11-05T04:15:58.461Z,8.50
2022-11-05T04:16:19.501Z,8.30
2022-11-05T04:16:40.562Z,8.40
2022-11-05T04:17:01.617Z,8.60
2022-11-05T04:17:22.674Z,8.70
2022-11-05T04:17:43.736Z,9.10
2022-11-05T04:18:04.789Z,8.40
2022-11-05T04:18:25.841Z,8.50
2022-11-05T04:18:46.944Z,8.50
2022-11-05T04:19:07.983Z,8.70
2022-11-05T04:19:29.057Z,8.60
2022-11-05T04:19:50.088Z,8.10
2022-11-05T04:20:11.154Z,8.40
2022-11-05T04:20:32.205Z,8.70
2022-11-05T04:20:53.261Z,8.80
2022-11-05T04:21:14.391Z,8.50
2022-11-05T04:21:35.408Z,8.90
2022-11-05T04:21:56.470Z,9.00
2022-11-05T04:22:17.525Z,8.70
2022-11-05T04:22:38.595Z,8.70
2022-11-05T04:22:59.672Z,8.20
2022-11-05T04:23:20.704Z,8.80
2022-11-05T04:23:41.805Z,9.10
2022-11-05T04:24:02.834Z,9.40
2022-11-05T04:24:23.931Z,8.80
2022-11-05T04:24:44.967Z,9.10
2022-11-05T04:25:06.025Z,9.30
2022-11-05T04:25:27.083Z,9.40
2022-11-05T04:25:48.137Z,9.30
2022-11-05T04:26:09.205Z,8.60
2022-11-05T04:26:30.246Z,8.70
2022-11-05T04:26:51.293Z,8.90
2022-11-05T04:27:12.360Z,9.40
2022-11-05T04:27:33.466Z,8.40
2022-11-05T04:27:54.522Z,8.50
2022-11-05T04:28:15.591Z,8.80
2022-11-05T04:28:36.641Z,9.10
2022-11-05T04:28:57.692Z,8.70
2022-11-05T04:29:18.772Z,8.70
2022-11-05T04:29:39.821Z,9.00
2022-11-05T04:30:00.863Z,8.60
2022-11-05T04:30:22.015Z,8.90
2022-11-05T04:30:43.054Z,8.70
2022-11-05T04:31:04.083Z,8.80
2022-11-05T04:31:25.135Z,9.00
2022-11-05T04:31:46.196Z,9.10
2022-11-05T04:32:07.231Z,9.30
2022-11-05T04:32:28.312Z,9.50
2022-11-05T04:32:49.488Z,9.70
2022-11-05T04:33:10.986Z,9.70
2022-11-05T04:33:32.277Z,9.50
2022-11-05T04:33:53.318Z,9.20
2022-11-05T04:34:14.370Z,9.70
2022-11-05T04:34:35.448Z,9.60
2022-11-05T04:34:56.517Z,9.20
2022-11-05T04:35:17.528Z,9.50
2022-11-05T04:35:38.713Z,9.40
2022-11-05T04:35:59.754Z,9.10
2022-11-05T04:36:20.801Z,9.40
2022-11-05T04:36:41.890Z,9.70
2022-11-05T04:37:02.949Z,9.00
2022-11-05T04:37:23.997Z,9.20
2022-11-05T04:37:45.115Z,9.50
2022-11-05T04:38:06.196Z,9.20
2022-11-05T04:38:27.228Z,9.60
2022-11-05T04:38:48.305Z,10.00
2022-11-05T04:39:09.325Z,9.60
2022-11-05T04:39:30.381Z,9.60
2022-11-05T04:39:51.449Z,9.30
2022-11-05T04:40:12.495Z,9.70
2022-11-05T04:40:33.554Z,9.10
2022-11-05T04:40:54.595Z,9.40
2022-11-05T04:41:15.647Z,10.00
2022-11-05T04:41:36.708Z,10.20
2022-11-05T04:41:57.769Z,9.70
2022-11-05T04:42:18.836Z,9.80
2022-11-05T04:42:39.892Z,9.70
2022-11-05T04:43:00.955Z,10.00
2022-11-05T04:43:22.397Z,9.80
2022-11-05T04:43:43.733Z,10.40